sensor_id;sensor_type;location;lat;lon;timestamp;pressure;altitude;pressure_sealevel;temperature;humidity
28456;BME280;15682;56.742;38.866;2024-02-04T00:01:28;96350.0;;;-4.4;100.0
28456;BME280;15682;56.742;38.866;2024-02-04T00:03:28;96350.0;;;-4.4;100.0
28456;BME280;15682;56.742;38.866;2024-02-04T00:05:27;96350.0;;;-4.4;100.0
28456;BME280;15682;56.742;38.866;2024-02-04T00:07:27;96350.0;;;-4.3;100.0
28456;BME280;15682;56.742;38.866;2024-02-04T00:09:27;96350.0;;;-4.3;100.0
28456;BME280;15682;56.742;38.866;2024-02-04T00:11:27;96350.0;;;-4.3;100.0
28456;BME280;15682;56.742;38.866;2024-02-04T00:13:27;96350.0;;;-4.3;100.0
28456;BME280;15682;56.742;38.866;2024-02-04T00:15:26;96330.0;;;-4.3;100.0
28456;BME280;15682;56.742;38.866;2024-02-04T00:17:26;96330.0;;;-4.3;100.0
28456;BME280;15682;56.742;38.866;2024-02-04T00:19:26;96330.0;;;-4.3;100.0
28456;BME280;15682;56.742;38.866;2024-02-04T00:21:26;96330.0;;;-4.3;100.0
28456;BME280;15682;56.742;38.866;2024-02-04T00:23:26;96330.0;;;-4.3;100.0
28456;BME280;15682;56.742;38.866;2024-02-04T00:25:26;96330.0;;;-4.3;100.0
28456;BME280;15682;56.742;38.866;2024-02-04T00:27:25;96330.0;;;-4.3;100.0
28456;BME280;15682;56.742;38.866;2024-02-04T00:29:25;96330.0;;;-4.3;100.0
28456;BME280;15682;56.742;38.866;2024-02-04T00:31:25;96300.0;;;-4.2;100.0
28456;BME280;15682;56.742;38.866;2024-02-04T00:33:25;96300.0;;;-4.2;100.0
28456;BME280;15682;56.742;38.866;2024-02-04T00:35:25;96300.0;;;-4.2;100.0
28456;BME280;15682;56.742;38.866;2024-02-04T00:37:25;96300.0;;;-4.2;100.0
28456;BME280;15682;56.742;38.866;2024-02-04T00:39:24;96280.0;;;-4.2;100.0
28456;BME280;15682;56.742;38.866;2024-02-04T00:41:24;96280.0;;;-4.2;100.0
28456;BME280;15682;56.742;38.866;2024-02-04T00:43:24;96280.0;;;-4.3;100.0
28456;BME280;15682;56.742;38.866;2024-02-04T00:45:24;96280.0;;;-4.3;100.0
28456;BME280;15682;56.742;38.866;2024-02-04T00:47:24;96280.0;;;-4.3;100.0
28456;BME280;15682;56.742;38.866;2024-02-04T00:49:24;96280.0;;;-4.3;100.0
28456;BME280;15682;56.742;38.866;2024-02-04T00:51:23;96280.0;;;-4.3;100.0
28456;BME280;15682;56.742;38.866;2024-02-04T00:53:23;96280.0;;;-4.1;100.0
28456;BME280;15682;56.742;38.866;2024-02-04T00:55:23;96280.0;;;-4.1;100.0
28456;BME280;15682;56.742;38.866;2024-02-04T00:57:23;96280.0;;;-4.1;100.0
28456;BME280;15682;56.742;38.866;2024-02-04T00:59:23;96280.0;;;-4.1;100.0
28456;BME280;15682;56.742;38.866;2024-02-04T01:01:22;96270.0;;;-4.1;100.0
28456;BME280;15682;56.742;38.866;2024-02-04T01:03:22;96250.0;;;-4.1;100.0
28456;BME280;15682;56.742;38.866;2024-02-04T01:05:22;96250.0;;;-4.1;100.0
28456;BME280;15682;56.742;38.866;2024-02-04T01:07:22;96250.0;;;-4.1;100.0
28456;BME280;15682;56.742;38.866;2024-02-04T01:09:22;96250.0;;;-4.1;100.0
28456;BME280;15682;56.742;38.866;2024-02-04T01:11:22;96250.0;;;-4.1;100.0
28456;BME280;15682;56.742;38.866;2024-02-04T01:13:22;96250.0;;;-4.1;100.0
28456;BME280;15682;56.742;38.866;2024-02-04T01:15:21;96250.0;;;-4.1;100.0
28456;BME280;15682;56.742;38.866;2024-02-04T01:17:21;96250.0;;;-4.1;100.0
28456;BME280;15682;56.742;38.866;2024-02-04T01:19:21;96220.0;;;-4.1;100.0
28456;BME280;15682;56.742;38.866;2024-02-04T01:21:21;96220.0;;;-4.1;100.0
28456;BME280;15682;56.742;38.866;2024-02-04T01:23:21;96220.0;;;-4.2;100.0
28456;BME280;15682;56.742;38.866;2024-02-04T01:25:20;96220.0;;;-4.2;100.0
28456;BME280;15682;56.742;38.866;2024-02-04T01:27:20;96220.0;;;-4.1;100.0
28456;BME280;15682;56.742;38.866;2024-02-04T01:29:20;96210.0;;;-4.1;100.0
28456;BME280;15682;56.742;38.866;2024-02-04T01:31:20;96200.0;;;-4.1;100.0
28456;BME280;15682;56.742;38.866;2024-02-04T01:33:20;96200.0;;;-4.1;100.0
28456;BME280;15682;56.742;38.866;2024-02-04T01:35:20;96200.0;;;-3.9;100.0
28456;BME280;15682;56.742;38.866;2024-02-04T01:37:19;96200.0;;;-3.9;100.0
28456;BME280;15682;56.742;38.866;2024-02-04T01:39:19;96170.0;;;-3.9;100.0
28456;BME280;15682;56.742;38.866;2024-02-04T01:41:19;96170.0;;;-3.9;100.0
28456;BME280;15682;56.742;38.866;2024-02-04T01:43:19;96170.0;;;-4.0;100.0
28456;BME280;15682;56.742;38.866;2024-02-04T01:45:19;96170.0;;;-4.0;100.0
28456;BME280;15682;56.742;38.866;2024-02-04T01:47:19;96170.0;;;-4.0;100.0
28456;BME280;15682;56.742;38.866;2024-02-04T01:49:18;96170.0;;;-4.0;100.0
28456;BME280;15682;56.742;38.866;2024-02-04T01:51:20;96170.0;;;-4.0;100.0
28456;BME280;15682;56.742;38.866;2024-02-04T01:53:19;96150.0;;;-4.0;100.0
28456;BME280;15682;56.742;38.866;2024-02-04T01:55:18;96140.0;;;-4.0;100.0
28456;BME280;15682;56.742;38.866;2024-02-04T01:57:18;96140.0;;;-4.0;100.0
28456;BME280;15682;56.742;38.866;2024-02-04T01:59:18;96140.0;;;-4.0;100.0
28456;BME280;15682;56.742;38.866;2024-02-04T02:01:17;96140.0;;;-4.0;100.0
28456;BME280;15682;56.742;38.866;2024-02-04T02:03:17;96140.0;;;-4.0;100.0
28456;BME280;15682;56.742;38.866;2024-02-04T02:05:17;96140.0;;;-4.0;100.0
28456;BME280;15682;56.742;38.866;2024-02-04T02:07:18;96140.0;;;-4.0;100.0
28456;BME280;15682;56.742;38.866;2024-02-04T02:09:17;96120.0;;;-4.0;100.0
28456;BME280;15682;56.742;38.866;2024-02-04T02:11:21;96120.0;;;-3.8;100.0
28456;BME280;15682;56.742;38.866;2024-02-04T02:13:22;96120.0;;;-3.8;100.0
28456;BME280;15682;56.742;38.866;2024-02-04T02:15:21;96120.0;;;-3.8;100.0
28456;BME280;15682;56.742;38.866;2024-02-04T02:17:22;96120.0;;;-3.8;100.0
28456;BME280;15682;56.742;38.866;2024-02-04T02:19:32;96120.0;;;-3.8;100.0
28456;BME280;15682;56.742;38.866;2024-02-04T02:21:30;96120.0;;;-3.8;100.0
28456;BME280;15682;56.742;38.866;2024-02-04T02:23:21;96120.0;;;-3.7;100.0
28456;BME280;15682;56.742;38.866;2024-02-04T02:25:17;96120.0;;;-3.7;100.0
28456;BME280;15682;56.742;38.866;2024-02-04T02:27:15;96120.0;;;-3.7;100.0
28456;BME280;15682;56.742;38.866;2024-02-04T02:29:15;96100.0;;;-3.7;100.0
28456;BME280;15682;56.742;38.866;2024-02-04T02:31:15;96100.0;;;-3.7;100.0
28456;BME280;15682;56.742;38.866;2024-02-04T02:33:15;96100.0;;;-3.6;100.0
28456;BME280;15682;56.742;38.866;2024-02-04T02:35:15;96100.0;;;-3.6;100.0
28456;BME280;15682;56.742;38.866;2024-02-04T02:37:24;96090.0;;;-3.6;100.0
28456;BME280;15682;56.742;38.866;2024-02-04T02:39:18;96090.0;;;-3.6;100.0
28456;BME280;15682;56.742;38.866;2024-02-04T02:41:16;96090.0;;;-3.6;100.0
28456;BME280;15682;56.742;38.866;2024-02-04T02:43:15;96090.0;;;-3.6;100.0
28456;BME280;15682;56.742;38.866;2024-02-04T02:45:16;96090.0;;;-3.6;100.0
28456;BME280;15682;56.742;38.866;2024-02-04T02:47:15;96090.0;;;-3.6;100.0
28456;BME280;15682;56.742;38.866;2024-02-04T02:49:14;96090.0;;;-3.6;100.0
28456;BME280;15682;56.742;38.866;2024-02-04T02:51:14;96080.0;;;-3.6;100.0
28456;BME280;15682;56.742;38.866;2024-02-04T02:53:13;96060.0;;;-3.6;100.0
28456;BME280;15682;56.742;38.866;2024-02-04T02:55:13;96060.0;;;-3.6;100.0
28456;BME280;15682;56.742;38.866;2024-02-04T02:57:13;96060.0;;;-3.6;100.0
28456;BME280;15682;56.742;38.866;2024-02-04T02:59:13;96060.0;;;-3.4;100.0
28456;BME280;15682;56.742;38.866;2024-02-04T03:01:13;96060.0;;;-3.4;100.0
28456;BME280;15682;56.742;38.866;2024-02-04T03:03:13;96060.0;;;-3.5;100.0
28456;BME280;15682;56.742;38.866;2024-02-04T03:05:14;96060.0;;;-3.3;100.0
28456;BME280;15682;56.742;38.866;2024-02-04T03:07:12;96060.0;;;-3.4;100.0
28456;BME280;15682;56.742;38.866;2024-02-04T03:09:12;96030.0;;;-3.4;100.0
28456;BME280;15682;56.742;38.866;2024-02-04T03:11:12;96030.0;;;-3.4;100.0
28456;BME280;15682;56.742;38.866;2024-02-04T03:13:12;96030.0;;;-3.4;100.0
28456;BME280;15682;56.742;38.866;2024-02-04T03:15:12;96030.0;;;-3.4;100.0
28456;BME280;15682;56.742;38.866;2024-02-04T03:17:12;96030.0;;;-3.4;100.0
28456;BME280;15682;56.742;38.866;2024-02-04T03:19:12;96030.0;;;-3.3;100.0
28456;BME280;15682;56.742;38.866;2024-02-04T03:21:12;96030.0;;;-3.3;100.0
28456;BME280;15682;56.742;38.866;2024-02-04T03:23:11;96030.0;;;-3.4;100.0
28456;BME280;15682;56.742;38.866;2024-02-04T03:25:11;96030.0;;;-3.4;100.0
28456;BME280;15682;56.742;38.866;2024-02-04T03:27:11;96020.0;;;-3.4;100.0
28456;BME280;15682;56.742;38.866;2024-02-04T03:29:11;96010.0;;;-3.4;100.0
28456;BME280;15682;56.742;38.866;2024-02-04T03:31:11;96010.0;;;-3.4;100.0
28456;BME280;15682;56.742;38.866;2024-02-04T03:33:10;96010.0;;;-3.2;100.0
28456;BME280;15682;56.742;38.866;2024-02-04T03:35:10;96010.0;;;-3.1;100.0
28456;BME280;15682;56.742;38.866;2024-02-04T03:37:10;96010.0;;;-3.1;100.0
28456;BME280;15682;56.742;38.866;2024-02-04T03:39:10;96000.0;;;-3.1;100.0
28456;BME280;15682;56.742;38.866;2024-02-04T03:41:10;96000.0;;;-3.1;100.0
28456;BME280;15682;56.742;38.866;2024-02-04T03:43:10;95980.0;;;-3.2;100.0
28456;BME280;15682;56.742;38.866;2024-02-04T03:45:10;95980.0;;;-3.2;100.0
28456;BME280;15682;56.742;38.866;2024-02-04T03:47:09;95980.0;;;-3.0;100.0
28456;BME280;15682;56.742;38.866;2024-02-04T03:49:09;95980.0;;;-3.0;100.0
28456;BME280;15682;56.742;38.866;2024-02-04T03:51:15;95980.0;;;-3.1;100.0
28456;BME280;15682;56.742;38.866;2024-02-04T03:53:09;95980.0;;;-2.8;100.0
28456;BME280;15682;56.742;38.866;2024-02-04T03:55:09;95980.0;;;-3.0;100.0
28456;BME280;15682;56.742;38.866;2024-02-04T03:57:09;95980.0;;;-3.0;100.0
28456;BME280;15682;56.742;38.866;2024-02-04T03:59:09;95980.0;;;-3.0;100.0
28456;BME280;15682;56.742;38.866;2024-02-04T04:01:10;95980.0;;;-2.8;100.0
28456;BME280;15682;56.742;38.866;2024-02-04T04:03:08;95980.0;;;-2.8;100.0
28456;BME280;15682;56.742;38.866;2024-02-04T04:05:11;95980.0;;;-2.8;100.0
28456;BME280;15682;56.742;38.866;2024-02-04T04:07:08;95980.0;;;-2.8;100.0
28456;BME280;15682;56.742;38.866;2024-02-04T04:09:08;95980.0;;;-2.8;100.0
28456;BME280;15682;56.742;38.866;2024-02-04T04:11:09;95970.0;;;-2.8;100.0
28456;BME280;15682;56.742;38.866;2024-02-04T04:13:07;95970.0;;;-2.8;100.0
28456;BME280;15682;56.742;38.866;2024-02-04T04:15:08;95970.0;;;-2.8;100.0
28456;BME280;15682;56.742;38.866;2024-02-04T04:17:07;95950.0;;;-2.8;100.0
28456;BME280;15682;56.742;38.866;2024-02-04T04:19:07;95950.0;;;-2.8;100.0
28456;BME280;15682;56.742;38.866;2024-02-04T04:21:07;95950.0;;;-2.8;100.0
28456;BME280;15682;56.742;38.866;2024-02-04T04:23:07;95950.0;;;-2.8;100.0
28456;BME280;15682;56.742;38.866;2024-02-04T04:25:07;95950.0;;;-2.7;100.0
28456;BME280;15682;56.742;38.866;2024-02-04T04:27:07;95950.0;;;-2.6;100.0
28456;BME280;15682;56.742;38.866;2024-02-04T04:29:06;95950.0;;;-2.7;100.0
28456;BME280;15682;56.742;38.866;2024-02-04T04:31:06;95950.0;;;-2.7;100.0
28456;BME280;15682;56.742;38.866;2024-02-04T04:33:06;95950.0;;;-2.6;100.0
28456;BME280;15682;56.742;38.866;2024-02-04T04:35:06;95950.0;;;-2.6;100.0
28456;BME280;15682;56.742;38.866;2024-02-04T04:37:06;95950.0;;;-2.8;100.0
28456;BME280;15682;56.742;38.866;2024-02-04T04:39:06;95950.0;;;-2.8;100.0
28456;BME280;15682;56.742;38.866;2024-02-04T04:41:06;95950.0;;;-2.8;100.0
28456;BME280;15682;56.742;38.866;2024-02-04T04:43:06;95930.0;;;-2.7;100.0
28456;BME280;15682;56.742;38.866;2024-02-04T04:45:06;95930.0;;;-2.7;100.0
28456;BME280;15682;56.742;38.866;2024-02-04T04:47:05;95930.0;;;-2.7;100.0
28456;BME280;15682;56.742;38.866;2024-02-04T04:49:05;95930.0;;;-2.7;100.0
28456;BME280;15682;56.742;38.866;2024-02-04T04:51:07;95920.0;;;-2.7;100.0
28456;BME280;15682;56.742;38.866;2024-02-04T04:53:05;95920.0;;;-2.7;100.0
28456;BME280;15682;56.742;38.866;2024-02-04T04:55:05;95920.0;;;-2.6;100.0
28456;BME280;15682;56.742;38.866;2024-02-04T04:57:05;95920.0;;;-2.6;100.0
28456;BME280;15682;56.742;38.866;2024-02-04T04:59:06;95920.0;;;-2.6;100.0
28456;BME280;15682;56.742;38.866;2024-02-04T05:01:04;95900.0;;;-2.6;100.0
28456;BME280;15682;56.742;38.866;2024-02-04T05:03:04;95900.0;;;-2.6;100.0
28456;BME280;15682;56.742;38.866;2024-02-04T05:05:05;95900.0;;;-2.6;100.0
28456;BME280;15682;56.742;38.866;2024-02-04T05:07:04;95900.0;;;-2.5;100.0
28456;BME280;15682;56.742;38.866;2024-02-04T05:09:04;95900.0;;;-2.5;100.0
28456;BME280;15682;56.742;38.866;2024-02-04T05:11:04;95900.0;;;-2.5;100.0
28456;BME280;15682;56.742;38.866;2024-02-04T05:13:04;95900.0;;;-2.5;100.0
28456;BME280;15682;56.742;38.866;2024-02-04T05:15:05;95900.0;;;-2.5;100.0
28456;BME280;15682;56.742;38.866;2024-02-04T05:17:04;95900.0;;;-2.3;100.0
28456;BME280;15682;56.742;38.866;2024-02-04T05:19:03;95900.0;;;-2.3;100.0
28456;BME280;15682;56.742;38.866;2024-02-04T05:21:04;95900.0;;;-2.4;100.0
28456;BME280;15682;56.742;38.866;2024-02-04T05:23:03;95900.0;;;-2.4;100.0
28456;BME280;15682;56.742;38.866;2024-02-04T05:25:03;95900.0;;;-2.4;100.0
28456;BME280;15682;56.742;38.866;2024-02-04T05:27:03;95900.0;;;-2.4;100.0
28456;BME280;15682;56.742;38.866;2024-02-04T05:29:03;95900.0;;;-2.6;100.0
28456;BME280;15682;56.742;38.866;2024-02-04T05:31:02;95890.0;;;-2.4;100.0
28456;BME280;15682;56.742;38.866;2024-02-04T05:33:03;95900.0;;;-2.4;100.0
28456;BME280;15682;56.742;38.866;2024-02-04T05:35:03;95900.0;;;-2.4;100.0
28456;BME280;15682;56.742;38.866;2024-02-04T05:37:02;95880.0;;;-2.4;100.0
28456;BME280;15682;56.742;38.866;2024-02-04T05:39:09;95880.0;;;-2.4;100.0
28456;BME280;15682;56.742;38.866;2024-02-04T05:41:02;95880.0;;;-2.4;100.0
28456;BME280;15682;56.742;38.866;2024-02-04T05:43:02;95880.0;;;-2.4;100.0
28456;BME280;15682;56.742;38.866;2024-02-04T05:45:02;95880.0;;;-2.3;100.0
28456;BME280;15682;56.742;38.866;2024-02-04T05:47:01;95880.0;;;-2.3;100.0
28456;BME280;15682;56.742;38.866;2024-02-04T05:49:02;95880.0;;;-2.3;100.0
28456;BME280;15682;56.742;38.866;2024-02-04T05:51:01;95870.0;;;-2.3;100.0
28456;BME280;15682;56.742;38.866;2024-02-04T05:53:01;95870.0;;;-2.0;100.0
28456;BME280;15682;56.742;38.866;2024-02-04T05:55:01;95870.0;;;-1.9;100.0
28456;BME280;15682;56.742;38.866;2024-02-04T05:57:01;95870.0;;;-1.9;100.0
28456;BME280;15682;56.742;38.866;2024-02-04T05:59:01;95870.0;;;-2.1;100.0
28456;BME280;15682;56.742;38.866;2024-02-04T06:01:02;95870.0;;;-2.1;100.0
28456;BME280;15682;56.742;38.866;2024-02-04T06:03:01;95870.0;;;-2.1;100.0
28456;BME280;15682;56.742;38.866;2024-02-04T06:05:01;95870.0;;;-2.1;100.0
28456;BME280;15682;56.742;38.866;2024-02-04T06:07:00;95870.0;;;-1.9;100.0
28456;BME280;15682;56.742;38.866;2024-02-04T06:09:00;95870.0;;;-1.9;100.0
28456;BME280;15682;56.742;38.866;2024-02-04T06:11:00;95870.0;;;-1.8;100.0
28456;BME280;15682;56.742;38.866;2024-02-04T06:13:00;95870.0;;;-1.8;100.0
28456;BME280;15682;56.742;38.866;2024-02-04T06:15:00;95870.0;;;-1.8;100.0
28456;BME280;15682;56.742;38.866;2024-02-04T06:17:00;95870.0;;;-1.6;100.0
28456;BME280;15682;56.742;38.866;2024-02-04T06:19:00;95870.0;;;-1.6;100.0
28456;BME280;15682;56.742;38.866;2024-02-04T06:21:00;95870.0;;;-1.6;100.0
28456;BME280;15682;56.742;38.866;2024-02-04T06:22:59;95870.0;;;-1.7;100.0
28456;BME280;15682;56.742;38.866;2024-02-04T06:24:59;95870.0;;;-1.6;100.0
28456;BME280;15682;56.742;38.866;2024-02-04T06:26:59;95870.0;;;-1.8;100.0
28456;BME280;15682;56.742;38.866;2024-02-04T06:28:59;95870.0;;;-1.8;100.0
28456;BME280;15682;56.742;38.866;2024-02-04T06:30:59;95870.0;;;-1.8;100.0
28456;BME280;15682;56.742;38.866;2024-02-04T06:32:59;95870.0;;;-1.7;100.0
28456;BME280;15682;56.742;38.866;2024-02-04T06:34:59;95870.0;;;-1.7;100.0
28456;BME280;15682;56.742;38.866;2024-02-04T06:36:59;95870.0;;;-1.7;100.0
28456;BME280;15682;56.742;38.866;2024-02-04T06:38:59;95870.0;;;-1.6;100.0
28456;BME280;15682;56.742;38.866;2024-02-04T06:40:59;95870.0;;;-1.6;100.0
28456;BME280;15682;56.742;38.866;2024-02-04T06:42:58;95870.0;;;-1.6;100.0
28456;BME280;15682;56.742;38.866;2024-02-04T06:44:58;95870.0;;;-1.6;100.0
28456;BME280;15682;56.742;38.866;2024-02-04T06:46:58;95870.0;;;-1.5;100.0
28456;BME280;15682;56.742;38.866;2024-02-04T06:48:58;95870.0;;;-1.5;100.0
28456;BME280;15682;56.742;38.866;2024-02-04T06:50:58;95870.0;;;-1.5;100.0
28456;BME280;15682;56.742;38.866;2024-02-04T06:52:58;95870.0;;;-1.6;100.0
28456;BME280;15682;56.742;38.866;2024-02-04T06:54:58;95870.0;;;-1.6;100.0
28456;BME280;15682;56.742;38.866;2024-02-04T06:56:58;95870.0;;;-1.6;100.0
28456;BME280;15682;56.742;38.866;2024-02-04T06:58:58;95870.0;;;-1.6;100.0
28456;BME280;15682;56.742;38.866;2024-02-04T07:00:58;95880.0;;;-1.6;100.0
28456;BME280;15682;56.742;38.866;2024-02-04T07:02:57;95880.0;;;-1.5;100.0
28456;BME280;15682;56.742;38.866;2024-02-04T07:04:57;95880.0;;;-1.5;100.0
28456;BME280;15682;56.742;38.866;2024-02-04T07:06:57;95880.0;;;-1.5;100.0
28456;BME280;15682;56.742;38.866;2024-02-04T07:08:57;95880.0;;;-1.5;100.0
28456;BME280;15682;56.742;38.866;2024-02-04T07:10:57;95880.0;;;-1.5;100.0
28456;BME280;15682;56.742;38.866;2024-02-04T07:12:57;95880.0;;;-1.4;100.0
28456;BME280;15682;56.742;38.866;2024-02-04T07:14:57;95880.0;;;-1.4;100.0
28456;BME280;15682;56.742;38.866;2024-02-04T07:16:57;95880.0;;;-1.4;100.0
28456;BME280;15682;56.742;38.866;2024-02-04T07:18:57;95880.0;;;-1.4;100.0
28456;BME280;15682;56.742;38.866;2024-02-04T07:20:57;95880.0;;;-1.3;100.0
28456;BME280;15682;56.742;38.866;2024-02-04T07:22:57;95880.0;;;-1.3;100.0
28456;BME280;15682;56.742;38.866;2024-02-04T07:24:56;95890.0;;;-1.2;100.0
28456;BME280;15682;56.742;38.866;2024-02-04T07:26:56;95900.0;;;-1.2;100.0
28456;BME280;15682;56.742;38.866;2024-02-04T07:28:56;95900.0;;;-1.0;100.0
28456;BME280;15682;56.742;38.866;2024-02-04T07:30:56;95900.0;;;-1.0;100.0
28456;BME280;15682;56.742;38.866;2024-02-04T07:32:56;95900.0;;;-1.1;100.0
28456;BME280;15682;56.742;38.866;2024-02-04T07:34:56;95900.0;;;-1.1;100.0
28456;BME280;15682;56.742;38.866;2024-02-04T07:36:56;95900.0;;;-1.1;100.0
28456;BME280;15682;56.742;38.866;2024-02-04T07:38:56;95900.0;;;-1.1;100.0
28456;BME280;15682;56.742;38.866;2024-02-04T07:40:56;95900.0;;;-1.1;100.0
28456;BME280;15682;56.742;38.866;2024-02-04T07:42:56;95900.0;;;-1.0;100.0
28456;BME280;15682;56.742;38.866;2024-02-04T07:44:55;95900.0;;;-0.9;100.0
28456;BME280;15682;56.742;38.866;2024-02-04T07:46:55;95900.0;;;-0.9;100.0
28456;BME280;15682;56.742;38.866;2024-02-04T07:48:55;95900.0;;;-0.9;100.0
28456;BME280;15682;56.742;38.866;2024-02-04T07:50:55;95920.0;;;-0.8;100.0
28456;BME280;15682;56.742;38.866;2024-02-04T07:52:55;95920.0;;;-0.9;100.0
28456;BME280;15682;56.742;38.866;2024-02-04T07:54:55;95920.0;;;-0.9;100.0
28456;BME280;15682;56.742;38.866;2024-02-04T07:56:55;95930.0;;;-0.8;100.0
28456;BME280;15682;56.742;38.866;2024-02-04T07:58:55;95930.0;;;-0.8;100.0
28456;BME280;15682;56.742;38.866;2024-02-04T08:00:55;95930.0;;;-0.7;100.0
28456;BME280;15682;56.742;38.866;2024-02-04T08:02:55;95930.0;;;-0.7;100.0
28456;BME280;15682;56.742;38.866;2024-02-04T08:04:54;95930.0;;;-0.7;100.0
28456;BME280;15682;56.742;38.866;2024-02-04T08:06:54;95930.0;;;-0.7;100.0
28456;BME280;15682;56.742;38.866;2024-02-04T08:08:54;95930.0;;;-0.5;100.0
28456;BME280;15682;56.742;38.866;2024-02-04T08:10:54;95930.0;;;-0.5;100.0
28456;BME280;15682;56.742;38.866;2024-02-04T08:12:54;95930.0;;;-0.5;100.0
28456;BME280;15682;56.742;38.866;2024-02-04T08:14:54;95930.0;;;-0.5;100.0
28456;BME280;15682;56.742;38.866;2024-02-04T08:16:54;95930.0;;;-0.5;100.0
28456;BME280;15682;56.742;38.866;2024-02-04T08:18:54;95940.0;;;-0.4;100.0
28456;BME280;15682;56.742;38.866;2024-02-04T08:20:54;95950.0;;;-0.4;100.0
28456;BME280;15682;56.742;38.866;2024-02-04T08:22:54;95950.0;;;-0.5;100.0
28456;BME280;15682;56.742;38.866;2024-02-04T08:24:53;95950.0;;;-0.5;100.0
28456;BME280;15682;56.742;38.866;2024-02-04T08:26:53;95950.0;;;-0.5;100.0
28456;BME280;15682;56.742;38.866;2024-02-04T08:28:53;95950.0;;;-0.2;100.0
28456;BME280;15682;56.742;38.866;2024-02-04T08:30:53;95950.0;;;-0.2;98.9
28456;BME280;15682;56.742;38.866;2024-02-04T08:32:53;95950.0;;;-0.3;98.9
28456;BME280;15682;56.742;38.866;2024-02-04T08:34:53;95950.0;;;-0.1;98.3
28456;BME280;15682;56.742;38.866;2024-02-04T08:36:53;95950.0;;;-0.1;98.3
28456;BME280;15682;56.742;38.866;2024-02-04T08:38:53;95950.0;;;-0.1;98.3
28456;BME280;15682;56.742;38.866;2024-02-04T08:40:53;95950.0;;;-0.1;98.0
28456;BME280;15682;56.742;38.866;2024-02-04T08:42:53;95980.0;;;0.0;97.6
28456;BME280;15682;56.742;38.866;2024-02-04T08:44:53;95980.0;;;0.0;97.6
28456;BME280;15682;56.742;38.866;2024-02-04T08:46:53;95980.0;;;0.0;97.6
28456;BME280;15682;56.742;38.866;2024-02-04T08:48:52;95980.0;;;0.0;97.6
28456;BME280;15682;56.742;38.866;2024-02-04T08:50:52;95980.0;;;0.0;97.8
28456;BME280;15682;56.742;38.866;2024-02-04T08:52:52;95990.0;;;0.0;97.8
28456;BME280;15682;56.742;38.866;2024-02-04T08:54:52;95990.0;;;0.2;97.8
28456;BME280;15682;56.742;38.866;2024-02-04T08:56:52;95990.0;;;0.2;97.0
28456;BME280;15682;56.742;38.866;2024-02-04T08:58:52;95990.0;;;0.2;97.0
28456;BME280;15682;56.742;38.866;2024-02-04T09:00:52;95990.0;;;0.2;97.6
28456;BME280;15682;56.742;38.866;2024-02-04T09:02:52;95990.0;;;0.0;97.6
28456;BME280;15682;56.742;38.866;2024-02-04T09:04:52;96000.0;;;0.0;97.6
28456;BME280;15682;56.742;38.866;2024-02-04T09:06:52;96000.0;;;0.2;97.6
28456;BME280;15682;56.742;38.866;2024-02-04T09:08:52;96000.0;;;0.2;97.6
28456;BME280;15682;56.742;38.866;2024-02-04T09:10:52;96000.0;;;0.2;97.1
28456;BME280;15682;56.742;38.866;2024-02-04T09:12:51;96000.0;;;0.2;97.1
28456;BME280;15682;56.742;38.866;2024-02-04T09:14:51;96000.0;;;0.3;97.1
28456;BME280;15682;56.742;38.866;2024-02-04T09:16:51;96000.0;;;0.2;97.1
28456;BME280;15682;56.742;38.866;2024-02-04T09:18:51;96000.0;;;0.1;97.6
28456;BME280;15682;56.742;38.866;2024-02-04T09:20:51;96000.0;;;0.3;97.3
28456;BME280;15682;56.742;38.866;2024-02-04T09:22:51;96000.0;;;0.4;97.0
28456;BME280;15682;56.742;38.866;2024-02-04T09:24:51;96000.0;;;0.5;97.0
28456;BME280;15682;56.742;38.866;2024-02-04T09:26:51;96000.0;;;0.5;97.0
28456;BME280;15682;56.742;38.866;2024-02-04T09:28:51;96000.0;;;0.5;97.0
28456;BME280;15682;56.742;38.866;2024-02-04T09:30:51;96000.0;;;0.5;97.3
28456;BME280;15682;56.742;38.866;2024-02-04T09:32:51;96000.0;;;0.5;97.6
28456;BME280;15682;56.742;38.866;2024-02-04T09:34:50;96000.0;;;0.5;97.6
28456;BME280;15682;56.742;38.866;2024-02-04T09:36:50;96000.0;;;0.5;97.6
28456;BME280;15682;56.742;38.866;2024-02-04T09:38:50;96000.0;;;0.6;97.6
28456;BME280;15682;56.742;38.866;2024-02-04T09:40:50;96000.0;;;0.6;97.1
28456;BME280;15682;56.742;38.866;2024-02-04T09:42:50;96000.0;;;0.8;97.1
28456;BME280;15682;56.742;38.866;2024-02-04T09:44:51;96000.0;;;0.8;97.1
28456;BME280;15682;56.742;38.866;2024-02-04T09:46:50;96000.0;;;0.8;97.1
28456;BME280;15682;56.742;38.866;2024-02-04T09:48:51;96010.0;;;0.8;97.1
28456;BME280;15682;56.742;38.866;2024-02-04T09:50:50;96010.0;;;0.8;96.8
28456;BME280;15682;56.742;38.866;2024-02-04T09:52:51;96010.0;;;0.8;96.8
28456;BME280;15682;56.742;38.866;2024-02-04T09:54:57;96010.0;;;0.8;96.5
28456;BME280;15682;56.742;38.866;2024-02-04T09:56:50;96010.0;;;0.8;97.0
28456;BME280;15682;56.742;38.866;2024-02-04T09:58:50;96010.0;;;0.9;96.4
28456;BME280;15682;56.742;38.866;2024-02-04T10:00:51;96010.0;;;0.9;96.1
28456;BME280;15682;56.742;38.866;2024-02-04T10:02:50;96010.0;;;0.9;96.4
28456;BME280;15682;56.742;38.866;2024-02-04T10:04:50;96010.0;;;0.9;96.4
28456;BME280;15682;56.742;38.866;2024-02-04T10:06:49;96010.0;;;0.9;96.4
28456;BME280;15682;56.742;38.866;2024-02-04T10:08:49;96010.0;;;0.7;96.4
28456;BME280;15682;56.742;38.866;2024-02-04T10:10:49;96010.0;;;0.7;97.2
28456;BME280;15682;56.742;38.866;2024-02-04T10:12:49;96010.0;;;0.9;96.6
28456;BME280;15682;56.742;38.866;2024-02-04T10:14:49;96020.0;;;0.9;96.6
28456;BME280;15682;56.742;38.866;2024-02-04T10:16:49;96020.0;;;1.0;96.6
28456;BME280;15682;56.742;38.866;2024-02-04T10:18:49;96020.0;;;0.9;96.6
28456;BME280;15682;56.742;38.866;2024-02-04T10:20:49;96030.0;;;1.0;96.7
28456;BME280;15682;56.742;38.866;2024-02-04T10:22:49;96030.0;;;0.8;98.1
28456;BME280;15682;56.742;38.866;2024-02-04T10:24:49;96030.0;;;0.8;98.1
28456;BME280;15682;56.742;38.866;2024-02-04T10:26:49;96030.0;;;0.7;98.1
28456;BME280;15682;56.742;38.866;2024-02-04T10:28:49;96030.0;;;0.7;98.1
28456;BME280;15682;56.742;38.866;2024-02-04T10:30:49;96030.0;;;0.7;98.7
28456;BME280;15682;56.742;38.866;2024-02-04T10:32:50;96030.0;;;0.6;98.7
28456;BME280;15682;56.742;38.866;2024-02-04T10:34:48;96030.0;;;0.6;99.4
28456;BME280;15682;56.742;38.866;2024-02-04T10:36:48;96030.0;;;0.6;99.4
28456;BME280;15682;56.742;38.866;2024-02-04T10:38:48;96030.0;;;0.6;99.4
28456;BME280;15682;56.742;38.866;2024-02-04T10:40:50;96030.0;;;0.6;99.6
28456;BME280;15682;56.742;38.866;2024-02-04T10:42:49;96050.0;;;0.6;100.0
28456;BME280;15682;56.742;38.866;2024-02-04T10:44:49;96050.0;;;0.6;100.0
28456;BME280;15682;56.742;38.866;2024-02-04T10:46:49;96050.0;;;0.6;100.0